createdAt,value
2018-08-22T00:00:41.205Z,20.11
2018-08-22T00:03:09.673Z,20.03
2018-08-22T00:05:38.094Z,19.97
2018-08-22T00:08:06.601Z,19.92
2018-08-22T00:10:35.054Z,19.91
2018-08-22T00:13:03.188Z,19.89
2018-08-22T00:15:31.281Z,19.84
2018-08-22T00:17:59.399Z,19.79
2018-08-22T00:20:27.491Z,19.74
2018-08-22T00:22:55.925Z,19.70
2018-08-22T00:25:24.428Z,19.70
2018-08-22T00:27:53.021Z,19.72
2018-08-22T00:30:21.474Z,19.73
2018-08-22T00:32:49.969Z,19.74
2018-08-22T00:35:18.419Z,19.72
2018-08-22T00:37:46.873Z,19.67
2018-08-22T00:40:14.965Z,19.66
2018-08-22T00:42:43.154Z,19.65
2018-08-22T00:45:11.583Z,19.64
2018-08-22T00:47:40.050Z,19.64
2018-08-22T00:50:08.149Z,19.61
2018-08-22T00:52:36.293Z,19.61
2018-08-22T00:55:04.882Z,19.59
2018-08-22T00:57:32.982Z,19.59
2018-08-22T01:00:01.134Z,19.59
2018-08-22T01:02:29.221Z,19.59
2018-08-22T01:04:57.677Z,19.59
2018-08-22T01:07:25.770Z,19.60
2018-08-22T01:09:53.893Z,19.61
2018-08-22T01:12:22.342Z,19.62
2018-08-22T01:14:51.046Z,19.62
2018-08-22T01:17:19.473Z,19.62
2018-08-22T01:19:47.927Z,19.60
2018-08-22T01:22:16.061Z,19.56
2018-08-22T01:24:44.505Z,19.54
2018-08-22T01:27:18.338Z,19.51
2018-08-22T01:29:46.437Z,19.44
2018-08-22T01:32:14.534Z,19.37
2018-08-22T01:34:42.757Z,19.33
2018-08-22T01:37:10.931Z,19.29
2018-08-22T01:39:39.374Z,19.27
2018-08-22T01:42:07.798Z,19.24
2018-08-22T01:44:36.241Z,19.23
2018-08-22T01:47:04.698Z,19.26
2018-08-22T01:49:33.261Z,19.30
2018-08-22T01:52:01.893Z,19.34
2018-08-22T01:54:30.697Z,19.40
2018-08-22T01:56:59.129Z,19.44
2018-08-22T01:59:27.283Z,19.46
2018-08-22T02:01:55.722Z,19.46
2018-08-22T02:04:24.173Z,19.47
2018-08-22T02:06:52.326Z,19.46
2018-08-22T02:09:20.433Z,19.42
2018-08-22T02:11:48.879Z,19.38
2018-08-22T02:14:17.527Z,19.35
2018-08-22T02:16:45.969Z,19.32
2018-08-22T02:19:14.414Z,19.29
2018-08-22T02:21:42.730Z,19.25
2018-08-22T02:24:11.170Z,19.24
2018-08-22T02:26:39.601Z,19.23
2018-08-22T02:29:07.709Z,19.18
2018-08-22T02:31:36.142Z,19.13
2018-08-22T02:34:04.250Z,19.07
2018-08-22T02:36:32.681Z,19.07
2018-08-22T02:39:00.772Z,19.04
2018-08-22T02:41:29.018Z,19.01
2018-08-22T02:43:57.122Z,18.98
2018-08-22T02:46:25.213Z,18.91
2018-08-22T02:48:54.219Z,18.81
2018-08-22T02:51:22.703Z,18.73
2018-08-22T02:53:50.821Z,18.67
2018-08-22T02:56:18.934Z,18.65
2018-08-22T02:58:47.357Z,18.69
2018-08-22T03:01:15.489Z,18.72
2018-08-22T03:03:43.913Z,18.75
2018-08-22T03:06:12.373Z,18.75
2018-08-22T03:08:40.793Z,18.75
2018-08-22T03:11:09.241Z,18.76
2018-08-22T03:13:37.365Z,18.77
2018-08-22T03:16:05.473Z,18.81
2018-08-22T03:18:33.569Z,18.82
2018-08-22T03:21:01.677Z,18.84
2018-08-22T03:23:29.773Z,18.86
2018-08-22T03:25:58.325Z,18.91
2018-08-22T03:28:26.622Z,18.96
2018-08-22T03:30:55.098Z,18.99
2018-08-22T03:33:23.546Z,19.02
2018-08-22T03:35:52.172Z,19.05
2018-08-22T03:38:20.278Z,19.06
2018-08-22T03:40:48.629Z,19.07
2018-08-22T03:43:16.745Z,19.09
2018-08-22T03:45:44.854Z,19.10
2018-08-22T03:48:13.284Z,19.12
2018-08-22T03:50:41.733Z,19.13
2018-08-22T03:53:10.182Z,19.14
2018-08-22T03:55:38.657Z,19.15
2018-08-22T03:58:07.082Z,19.14
2018-08-22T04:00:35.193Z,19.13
2018-08-22T04:03:03.634Z,19.10
2018-08-22T04:05:31.742Z,19.09
2018-08-22T04:07:59.841Z,19.08
2018-08-22T04:10:28.266Z,19.04
2018-08-22T04:12:56.731Z,19.02
2018-08-22T04:15:24.929Z,19.00
2018-08-22T04:17:53.022Z,18.98
2018-08-22T04:20:21.476Z,18.97
2018-08-22T04:22:49.753Z,18.97
2018-08-22T04:25:18.391Z,18.94
2018-08-22T04:27:46.836Z,18.91
2018-08-22T04:30:15.286Z,18.89
2018-08-22T04:32:43.405Z,18.90
2018-08-22T04:35:11.897Z,18.91
2018-08-22T04:37:40.350Z,18.91
2018-08-22T04:40:08.793Z,18.92
2018-08-22T04:42:36.929Z,18.91
2018-08-22T04:45:05.041Z,18.92
2018-08-22T04:47:33.505Z,18.95
2018-08-22T04:50:01.947Z,18.97
2018-08-22T04:52:30.590Z,18.97
2018-08-22T04:54:59.013Z,18.94
2018-08-22T04:57:27.480Z,18.90
2018-08-22T04:59:55.918Z,18.89
2018-08-22T05:02:24.393Z,18.88
2018-08-22T05:04:52.825Z,18.85
2018-08-22T05:07:21.273Z,18.85
2018-08-22T05:09:49.872Z,18.85
2018-08-22T05:12:18.305Z,18.86
2018-08-22T05:14:46.458Z,18.89
2018-08-22T05:17:14.619Z,18.88
2018-08-22T05:19:43.050Z,18.93
2018-08-22T05:22:11.506Z,19.00
2018-08-22T05:24:39.973Z,19.08
2018-08-22T05:27:08.761Z,19.16
2018-08-22T05:29:36.856Z,19.23
2018-08-22T05:32:05.322Z,19.29
2018-08-22T05:34:33.433Z,19.33
2018-08-22T05:37:01.626Z,19.38
2018-08-22T05:39:29.734Z,19.44
2018-08-22T05:41:57.857Z,19.55
2018-08-22T05:44:26.281Z,19.63
2018-08-22T05:46:54.408Z,19.73
2018-08-22T05:49:22.548Z,19.88
2018-08-22T05:51:50.848Z,19.98
2018-08-22T05:54:18.960Z,20.07
2018-08-22T05:56:47.154Z,20.14
2018-08-22T05:59:15.638Z,20.21
2018-08-22T06:01:44.069Z,20.33
2018-08-22T06:04:12.763Z,20.48
2018-08-22T06:06:40.865Z,20.61
2018-08-22T06:09:11.283Z,20.68
2018-08-22T06:11:40.060Z,20.66
2018-08-22T06:14:08.158Z,20.66
2018-08-22T06:16:36.622Z,20.69
2018-08-22T06:19:05.089Z,20.70
2018-08-22T06:21:33.550Z,20.78
2018-08-22T06:24:02.173Z,20.89
2018-08-22T06:26:30.277Z,20.99
2018-08-22T06:28:58.727Z,21.02
2018-08-22T06:31:26.842Z,21.03
2018-08-22T06:33:54.995Z,21.04
2018-08-22T06:36:23.404Z,21.09
2018-08-22T06:38:51.750Z,21.13
2018-08-22T06:41:19.865Z,21.19
2018-08-22T06:43:47.971Z,21.26
2018-08-22T06:46:16.411Z,21.37
2018-08-22T06:48:44.714Z,21.51
2018-08-22T06:51:12.839Z,21.66
2018-08-22T06:53:40.986Z,21.83
2018-08-22T06:56:09.277Z,22.05
2018-08-22T06:58:37.446Z,22.27
2018-08-22T07:01:06.165Z,22.44
2018-08-22T07:03:34.670Z,22.62
2018-08-22T07:06:03.066Z,22.77
2018-08-22T07:08:31.181Z,22.95
2018-08-22T07:10:59.613Z,23.18
2018-08-22T07:13:27.932Z,23.38
2018-08-22T07:15:56.041Z,23.56
2018-08-22T07:18:24.162Z,23.68
2018-08-22T07:20:52.634Z,23.84
2018-08-22T07:23:21.238Z,24.06
2018-08-22T07:25:49.701Z,24.26
2018-08-22T07:28:17.863Z,24.39
2018-08-22T07:30:46.306Z,24.54
2018-08-22T07:33:14.754Z,24.66
2018-08-22T07:35:42.910Z,24.75
2018-08-22T07:38:11.430Z,24.95
2018-08-22T07:40:39.866Z,25.14
2018-08-22T07:43:08.345Z,25.28
2018-08-22T07:45:36.783Z,25.43
2018-08-22T07:48:04.959Z,25.58
2018-08-22T07:50:33.993Z,25.74
2018-08-22T07:53:04.441Z,25.78
2018-08-22T07:55:35.942Z,25.83
2018-08-22T07:58:04.422Z,25.95
2018-08-22T08:00:32.526Z,26.10
2018-08-22T08:03:00.687Z,26.27
2018-08-22T08:05:29.347Z,26.46
2018-08-22T08:07:57.689Z,26.62
2018-08-22T08:10:31.038Z,26.80
2018-08-22T08:12:59.247Z,26.99
2018-08-22T08:15:27.965Z,27.23
2018-08-22T08:17:56.519Z,27.36
2018-08-22T08:20:25.197Z,27.46
2018-08-22T08:22:53.840Z,27.56
2018-08-22T08:25:22.314Z,27.58
2018-08-22T08:27:50.840Z,27.57
2018-08-22T08:30:19.450Z,27.66
2018-08-22T08:32:47.758Z,27.77
2018-08-22T08:35:16.420Z,27.88
2018-08-22T08:37:44.528Z,27.99
2018-08-22T08:40:12.853Z,28.11
2018-08-22T08:42:40.975Z,28.20
2018-08-22T08:45:10.743Z,28.25
2018-08-22T08:47:39.383Z,28.32
2018-08-22T08:50:07.485Z,28.44
2018-08-22T08:52:35.986Z,28.68
2018-08-22T08:55:04.119Z,28.81
2018-08-22T08:57:32.723Z,28.86
2018-08-22T09:00:01.497Z,28.86
2018-08-22T09:02:30.142Z,28.92
2018-08-22T09:04:59.278Z,29.11
2018-08-22T09:07:27.921Z,29.19
2018-08-22T09:09:56.400Z,29.19
2018-08-22T09:12:24.908Z,29.28
2018-08-22T09:14:53.548Z,29.38
2018-08-22T09:17:21.988Z,29.56
2018-08-22T09:19:50.302Z,29.80
2018-08-22T09:22:18.757Z,30.04
2018-08-22T09:24:47.204Z,30.14
2018-08-22T09:27:15.301Z,30.31
2018-08-22T09:29:43.744Z,30.34
2018-08-22T09:32:12.362Z,30.19
2018-08-22T09:34:40.903Z,30.14
2018-08-22T09:37:09.570Z,30.15
2018-08-22T09:39:38.053Z,30.21
2018-08-22T09:42:06.805Z,30.41
2018-08-22T09:44:35.315Z,30.58
2018-08-22T09:47:03.987Z,30.78
2018-08-22T09:49:32.434Z,30.90
2018-08-22T09:52:01.115Z,31.07
2018-08-22T09:54:29.629Z,31.20
2018-08-22T09:56:57.920Z,31.31
2018-08-22T09:59:26.041Z,31.45
2018-08-22T10:01:54.473Z,31.57
2018-08-22T10:04:22.906Z,31.69
2018-08-22T10:06:51.730Z,31.88
2018-08-22T10:09:24.821Z,32.16
2018-08-22T10:11:53.480Z,32.26
2018-08-22T10:14:21.791Z,32.42
2018-08-22T10:16:50.241Z,32.63
2018-08-22T10:19:18.701Z,32.82
2018-08-22T10:21:47.182Z,32.97
2018-08-22T10:24:15.631Z,32.95
2018-08-22T10:26:44.255Z,32.97
2018-08-22T10:29:12.901Z,33.10
2018-08-22T10:31:41.281Z,33.08
2018-08-22T10:34:10.201Z,33.11
2018-08-22T10:36:38.643Z,33.17
2018-08-22T10:39:08.219Z,33.24
2018-08-22T10:41:36.934Z,33.42
2018-08-22T10:44:05.269Z,33.56
2018-08-22T10:46:33.865Z,33.70
2018-08-22T10:49:01.960Z,33.77
2018-08-22T10:51:30.415Z,33.81
2018-08-22T10:53:58.622Z,33.82
2018-08-22T10:56:27.225Z,33.94
2018-08-22T10:58:55.669Z,34.07
2018-08-22T11:01:24.113Z,34.24
2018-08-22T11:03:52.358Z,34.29
2018-08-22T11:06:20.693Z,34.11
2018-08-22T11:08:49.130Z,34.26
2018-08-22T11:11:17.565Z,34.41
2018-08-22T11:13:45.994Z,34.51
2018-08-22T11:16:14.086Z,34.78
2018-08-22T11:18:42.438Z,35.13
2018-08-22T11:21:21.734Z,35.36
2018-08-22T11:24:01.239Z,35.21
2018-08-22T11:26:40.685Z,34.99
2018-08-22T11:29:20.293Z,34.79
2018-08-22T11:31:59.752Z,34.47
2018-08-22T11:34:39.119Z,34.17
2018-08-22T11:37:09.002Z,34.14
2018-08-22T11:39:37.373Z,34.29
2018-08-22T11:42:06.262Z,34.53
2018-08-22T11:44:34.413Z,34.70
2018-08-22T11:49:44.125Z,34.55
2018-08-22T11:52:12.283Z,34.34
2018-08-22T11:54:41.241Z,34.14
2018-08-22T11:57:09.706Z,34.10
2018-08-22T11:59:37.826Z,34.23
2018-08-22T12:02:06.186Z,34.54
2018-08-22T12:04:34.645Z,34.97
2018-08-22T12:07:03.114Z,35.26
2018-08-22T12:09:31.434Z,35.32
2018-08-22T12:11:59.995Z,35.33
2018-08-22T12:14:28.465Z,35.32
2018-08-22T12:16:56.581Z,35.42
2018-08-22T12:19:25.086Z,35.55
2018-08-22T12:21:53.550Z,35.51
2018-08-22T12:24:22.011Z,35.49
2018-08-22T12:26:50.162Z,35.62
2018-08-22T12:29:18.590Z,35.61
2018-08-22T12:31:46.746Z,35.33
2018-08-22T12:34:15.197Z,35.25
2018-08-22T12:36:43.657Z,35.23
2018-08-22T12:39:12.286Z,35.34
2018-08-22T12:41:40.781Z,35.43
2018-08-22T12:44:09.221Z,35.54
2018-08-22T12:46:37.874Z,35.43
2018-08-22T12:49:06.014Z,35.16
2018-08-22T12:51:34.110Z,35.13
2018-08-22T12:54:02.242Z,35.34
2018-08-22T12:56:30.743Z,35.49
2018-08-22T12:58:58.854Z,35.41
2018-08-22T13:01:27.307Z,35.34
2018-08-22T13:03:55.418Z,35.43
2018-08-22T13:06:23.854Z,35.56
2018-08-22T13:08:52.878Z,35.78
2018-08-22T13:11:21.027Z,35.68
2018-08-22T13:13:49.293Z,35.50
2018-08-22T13:16:17.750Z,35.55
2018-08-22T13:18:45.901Z,35.86
2018-08-22T13:21:14.370Z,35.87
2018-08-22T13:23:43.012Z,35.59
2018-08-22T13:26:11.354Z,35.18
2018-08-22T13:28:39.821Z,35.11
2018-08-22T13:31:07.938Z,35.30
2018-08-22T13:33:36.575Z,35.75
2018-08-22T13:36:05.022Z,36.13
2018-08-22T13:38:33.794Z,36.37
2018-08-22T13:41:01.932Z,36.40
2018-08-22T13:43:30.247Z,36.29
2018-08-22T13:45:58.729Z,36.15
2018-08-22T13:48:27.167Z,36.28
2018-08-22T13:50:55.591Z,36.49
2018-08-22T13:53:24.161Z,36.62
2018-08-22T13:55:52.844Z,36.71
2018-08-22T13:58:21.474Z,36.60
2018-08-22T14:00:50.029Z,36.62
2018-08-22T14:03:18.538Z,36.64
2018-08-22T14:05:46.982Z,36.54
2018-08-22T14:08:15.666Z,36.26
2018-08-22T14:10:44.110Z,35.98
2018-08-22T14:13:12.236Z,35.80
2018-08-22T14:15:40.529Z,35.39
2018-08-22T14:18:08.654Z,34.98
2018-08-22T14:20:37.118Z,34.69
2018-08-22T14:23:05.996Z,34.64
2018-08-22T14:25:34.433Z,34.83
2018-08-22T14:28:02.883Z,35.09
2018-08-22T14:30:31.170Z,35.14
2018-08-22T14:32:59.286Z,34.83
2018-08-22T14:35:27.734Z,34.37
2018-08-22T14:37:55.881Z,34.06
2018-08-22T14:40:24.350Z,33.96
2018-08-22T14:42:52.786Z,33.90
2018-08-22T14:45:21.258Z,33.85
2018-08-22T14:47:49.382Z,33.84
2018-08-22T14:50:18.111Z,33.82
2018-08-22T14:52:46.238Z,33.94
2018-08-22T14:55:14.942Z,34.04
2018-08-22T14:57:45.515Z,34.21
2018-08-22T15:00:13.986Z,34.43
2018-08-22T15:02:42.921Z,34.69
2018-08-22T15:05:11.790Z,34.84
2018-08-22T15:07:40.509Z,34.93
2018-08-22T15:10:08.942Z,35.11
2018-08-22T15:12:38.020Z,35.35
2018-08-22T15:15:06.924Z,35.70
2018-08-22T15:17:35.045Z,35.86
2018-08-22T15:20:03.750Z,35.89
2018-08-22T15:22:32.250Z,35.77
2018-08-22T15:25:00.711Z,35.62
2018-08-22T15:27:29.207Z,35.42
2018-08-22T15:29:57.702Z,35.27
2018-08-22T15:32:26.639Z,35.07
2018-08-22T15:34:56.425Z,35.03
2018-08-22T15:37:25.255Z,35.00
2018-08-22T15:39:53.843Z,34.95
2018-08-22T15:42:21.965Z,34.87
2018-08-22T15:44:50.235Z,34.75
2018-08-22T15:47:18.771Z,34.60
2018-08-22T15:49:47.547Z,34.32
2018-08-22T15:52:15.921Z,34.13
2018-08-22T15:54:56.466Z,33.84
2018-08-22T15:57:24.574Z,33.71
2018-08-22T15:59:53.038Z,33.81
2018-08-22T16:02:21.487Z,34.00
2018-08-22T16:04:54.114Z,34.20
2018-08-22T16:07:22.255Z,34.41
2018-08-22T16:09:50.374Z,34.63
2018-08-22T16:12:18.835Z,34.75
2018-08-22T16:14:47.286Z,34.91
2018-08-22T16:17:15.749Z,35.04
2018-08-22T16:19:44.203Z,35.11
2018-08-22T16:22:12.642Z,34.83
2018-08-22T16:24:42.374Z,34.56
2018-08-22T16:27:10.809Z,34.35
2018-08-22T16:29:38.937Z,34.22
2018-08-22T16:32:07.102Z,34.12
2018-08-22T16:34:35.566Z,34.06
2018-08-22T16:37:03.909Z,33.95
2018-08-22T16:39:39.766Z,33.78
2018-08-22T16:42:08.693Z,33.70
2018-08-22T16:44:37.154Z,33.67
2018-08-22T16:47:05.450Z,33.65
2018-08-22T16:49:34.216Z,33.60
2018-08-22T16:52:02.514Z,33.58
2018-08-22T16:54:31.024Z,33.57
2018-08-22T16:56:59.230Z,33.58
2018-08-22T16:59:27.760Z,33.58
2018-08-22T17:01:55.985Z,33.57
2018-08-22T17:04:24.286Z,33.51
2018-08-22T17:06:52.445Z,33.47
2018-08-22T17:09:21.086Z,33.41
2018-08-22T17:11:49.761Z,33.40
2018-08-22T17:14:18.121Z,33.37
2018-08-22T17:16:46.925Z,33.30
2018-08-22T17:19:15.396Z,33.23
2018-08-22T17:21:43.621Z,33.14
2018-08-22T17:24:12.274Z,33.10
2018-08-22T17:26:40.725Z,33.06
2018-08-22T17:29:09.250Z,33.01
2018-08-22T17:31:37.361Z,32.94
2018-08-22T17:34:06.391Z,32.85
2018-08-22T17:36:34.494Z,32.79
2018-08-22T17:39:03.569Z,32.72
2018-08-22T17:41:31.703Z,32.66
2018-08-22T17:44:05.884Z,32.56
2018-08-22T17:46:36.822Z,32.44
2018-08-22T17:49:05.019Z,32.32
2018-08-22T17:51:43.622Z,32.20
2018-08-22T17:54:12.094Z,32.08
2018-08-22T17:56:40.542Z,31.97
2018-08-22T17:59:09.011Z,31.86
2018-08-22T18:01:37.238Z,31.78
2018-08-22T18:04:05.707Z,31.70
2018-08-22T18:06:34.158Z,31.63
2018-08-22T18:09:03.725Z,31.55
2018-08-22T18:11:32.171Z,31.47
2018-08-22T18:14:00.399Z,31.37
2018-08-22T18:16:28.667Z,31.23
2018-08-22T18:18:57.137Z,31.10
2018-08-22T18:21:32.866Z,30.96
2018-08-22T18:24:01.442Z,30.84
2018-08-22T18:26:30.084Z,30.71
2018-08-22T18:28:58.574Z,30.56
2018-08-22T18:31:27.041Z,30.45
2018-08-22T18:33:59.080Z,30.34
2018-08-22T18:36:28.778Z,30.23
2018-08-22T18:39:07.282Z,30.09
2018-08-22T18:41:35.899Z,29.95
2018-08-22T18:44:04.622Z,29.79
2018-08-22T18:46:33.077Z,29.68
2018-08-22T18:49:02.991Z,29.59
2018-08-22T18:51:31.631Z,29.49
2018-08-22T18:54:00.753Z,29.36
2018-08-22T18:56:28.899Z,29.24
2018-08-22T18:58:57.394Z,29.15
2018-08-22T19:01:25.548Z,29.06
2018-08-22T19:03:56.541Z,28.98
2018-08-22T19:06:25.043Z,28.90
2018-08-22T19:08:53.486Z,28.82
2018-08-22T19:11:22.472Z,28.73
2018-08-22T19:13:50.586Z,28.67
2018-08-22T19:16:19.330Z,28.57
2018-08-22T19:18:47.793Z,28.48
2018-08-22T19:21:16.276Z,28.38
2018-08-22T19:23:45.521Z,28.29
2018-08-22T19:26:14.453Z,28.19
2018-08-22T19:28:53.993Z,28.10
2018-08-22T19:31:22.641Z,28.01
2018-08-22T19:33:50.754Z,27.93
2018-08-22T19:36:19.202Z,27.85
2018-08-22T19:38:47.662Z,27.80
2018-08-22T19:41:23.541Z,27.75
2018-08-22T19:43:51.710Z,27.73
2018-08-22T19:46:20.187Z,27.68
2018-08-22T19:48:49.235Z,27.64
2018-08-22T19:51:17.541Z,27.60
2018-08-22T19:53:59.053Z,27.56
2018-08-22T19:56:28.307Z,27.50
2018-08-22T19:58:56.835Z,27.43
2018-08-22T20:01:25.286Z,27.37
2018-08-22T20:03:55.151Z,27.33
2018-08-22T20:06:24.301Z,27.30
2018-08-22T20:08:55.030Z,27.23
2018-08-22T20:11:23.362Z,27.14
2018-08-22T20:13:54.774Z,27.05
2018-08-22T20:16:23.818Z,26.91
2018-08-22T20:18:58.801Z,26.82
2018-08-22T20:21:29.947Z,26.75
2018-08-22T20:23:58.531Z,26.67
2018-08-22T20:26:27.717Z,26.58
2018-08-22T20:28:57.366Z,26.46
2018-08-22T20:31:25.820Z,26.39
2018-08-22T20:34:03.018Z,26.35
2018-08-22T20:36:32.093Z,26.31
2018-08-22T20:39:03.918Z,26.32
2018-08-22T20:41:32.386Z,26.31
2018-08-22T20:44:00.509Z,26.30
2018-08-22T20:46:28.991Z,26.22
2018-08-22T20:48:57.478Z,26.16
2018-08-22T20:51:25.925Z,26.12
2018-08-22T20:53:59.477Z,26.07
2018-08-22T20:56:27.646Z,26.08
2018-08-22T20:58:55.757Z,26.09
2018-08-22T21:01:23.899Z,26.07
2018-08-22T21:03:52.002Z,26.00
2018-08-22T21:06:20.150Z,25.96
2018-08-22T21:08:48.291Z,25.91
2018-08-22T21:11:16.614Z,25.76
2018-08-22T21:13:44.797Z,25.61
2018-08-22T21:16:13.474Z,25.52
2018-08-22T21:18:41.825Z,25.46
2018-08-22T21:21:14.985Z,25.42
2018-08-22T21:23:43.101Z,25.37
2018-08-22T21:26:12.571Z,25.35
2018-08-22T21:28:42.697Z,25.38
2018-08-22T21:31:11.165Z,25.38
2018-08-22T21:33:39.313Z,25.35
2018-08-22T21:36:07.438Z,25.33
2018-08-22T21:38:35.889Z,25.32
2018-08-22T21:41:04.385Z,25.24
2018-08-22T21:43:32.767Z,25.11
2018-08-22T21:46:01.210Z,25.07
2018-08-22T21:48:29.338Z,25.09
2018-08-22T21:50:57.470Z,25.10
2018-08-22T21:53:25.608Z,25.14
2018-08-22T21:55:54.078Z,25.20
2018-08-22T21:58:22.534Z,25.17
2018-08-22T22:00:51.458Z,25.05
2018-08-22T22:03:25.406Z,24.90
2018-08-22T22:05:57.018Z,24.74
2018-08-22T22:08:25.566Z,24.62
2018-08-22T22:11:04.123Z,24.49
2018-08-22T22:13:32.650Z,24.36
2018-08-22T22:16:03.486Z,24.24
2018-08-22T22:18:32.963Z,24.13
2018-08-22T22:21:07.930Z,24.03
2018-08-22T22:23:42.722Z,23.91
2018-08-22T22:26:11.034Z,23.86
2018-08-22T22:28:40.073Z,23.81
2018-08-22T22:31:11.645Z,23.71
2018-08-22T22:33:46.513Z,23.63
2018-08-22T22:36:15.487Z,23.59
2018-08-22T22:38:43.942Z,23.54
2018-08-22T22:41:12.391Z,23.49
2018-08-22T22:43:41.226Z,23.47
2018-08-22T22:46:09.718Z,23.41
2018-08-22T22:48:39.706Z,23.36
2018-08-22T22:51:08.727Z,23.30
2018-08-22T22:53:37.330Z,23.26
2018-08-22T22:56:06.100Z,23.25
2018-08-22T22:58:35.106Z,23.23
2018-08-22T23:01:03.245Z,23.22
2018-08-22T23:03:31.901Z,23.19
2018-08-22T23:06:00.022Z,23.16
2018-08-22T23:08:28.154Z,23.17
2018-08-22T23:10:56.778Z,23.18
2018-08-22T23:13:25.962Z,23.20
2018-08-22T23:15:54.437Z,23.19
2018-08-22T23:18:22.965Z,23.18
2018-08-22T23:20:51.714Z,23.18
2018-08-22T23:23:29.334Z,23.19
2018-08-22T23:26:05.062Z,23.16
2018-08-22T23:28:33.680Z,23.07
2018-08-22T23:31:01.826Z,23.04
2018-08-22T23:33:30.308Z,23.05
2018-08-22T23:35:58.779Z,23.07
2018-08-22T23:38:33.209Z,23.07
2018-08-22T23:41:02.778Z,23.09
2018-08-22T23:43:36.825Z,23.10
2018-08-22T23:46:06.542Z,23.04
2018-08-22T23:48:35.634Z,22.97
2018-08-22T23:51:05.349Z,22.96
2018-08-22T23:53:41.690Z,22.92
2018-08-22T23:56:17.303Z,22.83
2018-08-22T23:58:46.357Z,22.76
